createdAt,value
2023-02-28T00:00:32.955Z,100.00
2023-02-28T00:01:35.736Z,100.00
2023-02-28T00:02:39.194Z,100.00
2023-02-28T00:03:41.858Z,100.00
2023-02-28T00:04:44.735Z,100.00
2023-02-28T00:05:47.365Z,100.00
2023-02-28T00:06:49.758Z,100.00
2023-02-28T00:07:52.282Z,100.00
2023-02-28T00:08:54.802Z,100.00
2023-02-28T00:09:57.683Z,100.00
2023-02-28T00:11:05.364Z,100.00
2023-02-28T00:12:11.155Z,100.00
2023-02-28T00:13:14.365Z,100.00
2023-02-28T00:14:16.892Z,100.00
2023-02-28T00:15:19.893Z,100.00
2023-02-28T00:16:23.591Z,100.00
2023-02-28T00:17:26.127Z,100.00
2023-02-28T00:18:31.112Z,100.00
2023-02-28T00:19:33.928Z,100.00
2023-02-28T00:20:36.337Z,100.00
2023-02-28T00:21:41.850Z,100.00
2023-02-28T00:22:47.137Z,100.00
2023-02-28T00:23:49.684Z,100.00
2023-02-28T00:24:52.175Z,100.00
2023-02-28T00:25:55.055Z,100.00
2023-02-28T00:26:57.579Z,100.00
2023-02-28T00:27:59.975Z,100.00
2023-02-28T00:29:02.509Z,100.00
2023-02-28T00:30:06.342Z,100.00
2023-02-28T00:31:08.966Z,100.00
2023-02-28T00:32:11.544Z,100.00
2023-02-28T00:33:14.256Z,100.00
2023-02-28T00:34:16.793Z,100.00
2023-02-28T00:35:19.423Z,100.00
2023-02-28T00:36:21.950Z,100.00
2023-02-28T00:37:24.581Z,100.00
2023-02-28T00:38:26.984Z,100.00
2023-02-28T00:39:29.864Z,100.00
2023-02-28T00:40:32.862Z,100.00
2023-02-28T00:41:35.385Z,100.00
2023-02-28T00:42:37.903Z,100.00
2023-02-28T00:43:41.068Z,100.00
2023-02-28T00:44:43.562Z,100.00
2023-02-28T00:45:47.778Z,100.00
2023-02-28T00:46:50.154Z,100.00
2023-02-28T00:47:52.669Z,100.00
2023-02-28T00:48:55.430Z,100.00
2023-02-28T00:49:57.950Z,100.00
2023-02-28T00:51:00.712Z,100.00
2023-02-28T00:52:03.238Z,100.00
2023-02-28T00:53:05.753Z,100.00
2023-02-28T00:54:08.166Z,100.00
2023-02-28T00:55:11.032Z,100.00
2023-02-28T00:56:13.562Z,100.00
2023-02-28T00:57:16.073Z,100.00
2023-02-28T00:58:18.594Z,100.00
2023-02-28T00:59:21.233Z,100.00
2023-02-28T01:00:23.958Z,100.00
2023-02-28T01:01:26.800Z,100.00
2023-02-28T01:02:29.408Z,100.00
2023-02-28T01:03:31.919Z,100.00
2023-02-28T01:04:34.603Z,100.00
2023-02-28T01:05:37.443Z,100.00
2023-02-28T01:06:40.082Z,100.00
2023-02-28T01:07:42.484Z,100.00
2023-02-28T01:08:45.122Z,100.00
2023-02-28T01:09:47.640Z,100.00
2023-02-28T01:10:50.521Z,100.00
2023-02-28T01:11:53.047Z,100.00
2023-02-28T01:12:55.565Z,100.00
2023-02-28T01:13:58.443Z,100.00
2023-02-28T01:15:00.870Z,100.00
2023-02-28T01:16:03.509Z,100.00
2023-02-28T01:17:06.726Z,100.00
2023-02-28T01:18:09.255Z,100.00
2023-02-28T01:19:12.249Z,100.00
2023-02-28T01:20:15.019Z,100.00
2023-02-28T01:21:19.334Z,100.00
2023-02-28T01:22:21.853Z,100.00
2023-02-28T01:23:25.472Z,100.00
2023-02-28T01:24:27.978Z,100.00
2023-02-28T01:25:30.862Z,100.00
2023-02-28T01:26:33.390Z,100.00
2023-02-28T01:27:36.858Z,100.00
2023-02-28T01:28:39.373Z,100.00
2023-02-28T01:29:42.020Z,100.00
2023-02-28T01:30:50.026Z,100.00
2023-02-28T01:31:52.908Z,100.00
2023-02-28T01:32:56.177Z,100.00
2023-02-28T01:33:58.703Z,100.00
2023-02-28T01:35:04.700Z,100.00
2023-02-28T01:36:19.099Z,100.00
2023-02-28T01:37:21.500Z,100.00
2023-02-28T01:38:24.047Z,100.00
2023-02-28T01:39:27.397Z,100.00
2023-02-28T01:40:30.042Z,100.00
2023-02-28T01:41:34.702Z,100.00
2023-02-28T01:42:37.222Z,100.00
2023-02-28T01:43:45.511Z,100.00
2023-02-28T01:45:26.912Z,100.00
2023-02-28T01:46:29.333Z,100.00
2023-02-28T01:47:37.348Z,100.00
2023-02-28T01:48:48.263Z,100.00
2023-02-28T01:49:52.649Z,100.00
2023-02-28T01:51:02.425Z,100.00
2023-02-28T01:52:05.074Z,100.00
2023-02-28T01:53:11.682Z,100.00
2023-02-28T01:54:19.232Z,100.00
2023-02-28T01:55:24.386Z,100.00
2023-02-28T01:56:31.239Z,100.00
2023-02-28T01:57:38.911Z,100.00
2023-02-28T01:58:41.551Z,100.00
2023-02-28T01:59:53.577Z,100.00
2023-02-28T02:00:56.071Z,100.00
2023-02-28T02:01:58.623Z,100.00
2023-02-28T02:03:09.991Z,100.00
2023-02-28T02:04:12.633Z,100.00
2023-02-28T02:05:20.685Z,100.00
2023-02-28T02:06:41.552Z,100.00
2023-02-28T02:07:49.840Z,100.00
2023-02-28T02:08:53.552Z,100.00
2023-02-28T02:10:25.837Z,100.00
2023-02-28T02:11:30.908Z,100.00
2023-02-28T02:12:57.159Z,100.00
2023-02-28T02:14:30.766Z,100.00
2023-02-28T02:15:57.783Z,100.00
2023-02-28T02:17:14.319Z,100.00
2023-02-28T02:18:47.682Z,100.00
2023-02-28T02:20:37.011Z,100.00
2023-02-28T02:22:03.530Z,100.00
2023-02-28T02:23:33.431Z,100.00
2023-02-28T02:24:48.645Z,100.00
2023-02-28T02:25:59.692Z,100.00
2023-02-28T02:27:13.967Z,100.00
2023-02-28T02:28:41.212Z,100.00
2023-02-28T02:30:14.455Z,100.00
2023-02-28T02:31:41.603Z,100.00
2023-02-28T02:32:56.210Z,100.00
2023-02-28T02:34:20.454Z,100.00
2023-02-28T02:35:30.815Z,100.00
2023-02-28T02:36:55.133Z,100.00
2023-02-28T02:38:38.575Z,100.00
2023-02-28T02:40:03.664Z,100.00
2023-02-28T02:41:24.058Z,100.00
2023-02-28T02:42:44.823Z,100.00
2023-02-28T02:43:47.218Z,100.00
2023-02-28T02:44:57.055Z,100.00
2023-02-28T02:46:20.749Z,100.00
2023-02-28T02:47:26.590Z,100.00
2023-02-28T02:48:33.421Z,100.00
2023-02-28T02:49:39.308Z,100.00
2023-02-28T02:50:47.824Z,100.00
2023-02-28T02:51:53.100Z,100.00
2023-02-28T02:53:01.505Z,100.00
2023-02-28T02:54:09.086Z,100.00
2023-02-28T02:55:14.231Z,100.00
2023-02-28T02:56:20.769Z,100.00
2023-02-28T02:57:36.443Z,100.00
2023-02-28T02:58:43.334Z,100.00
2023-02-28T02:59:46.176Z,100.00
2023-02-28T03:00:54.233Z,100.00
2023-02-28T03:02:02.111Z,100.00
2023-02-28T03:03:07.994Z,100.00
2023-02-28T03:04:17.714Z,100.00
2023-02-28T03:05:46.032Z,100.00
2023-02-28T03:06:49.036Z,100.00
2023-02-28T03:07:51.437Z,100.00
2023-02-28T03:08:54.678Z,100.00
2023-02-28T03:09:59.236Z,100.00
2023-02-28T03:11:04.408Z,100.00
2023-02-28T03:12:14.126Z,100.00
2023-02-28T03:13:25.903Z,100.00
2023-02-28T03:14:42.689Z,100.00
2023-02-28T03:16:12.589Z,100.00
2023-02-28T03:17:49.061Z,100.00
2023-02-28T03:19:12.931Z,100.00
2023-02-28T03:20:33.684Z,100.00
2023-02-28T03:21:50.127Z,100.00
2023-02-28T03:23:14.373Z,100.00
2023-02-28T03:24:31.406Z,100.00
2023-02-28T03:25:48.572Z,100.00
2023-02-28T03:27:24.571Z,100.00
2023-02-28T03:28:43.068Z,100.00
2023-02-28T03:30:07.416Z,100.00
2023-02-28T03:31:30.357Z,100.00
2023-02-28T03:33:06.574Z,100.00
2023-02-28T03:34:25.667Z,100.00
2023-02-28T03:35:40.113Z,100.00
2023-02-28T03:36:49.018Z,100.00
2023-02-28T03:37:55.301Z,100.00
2023-02-28T03:39:06.590Z,100.00
2023-02-28T03:40:14.384Z,100.00
2023-02-28T03:41:24.709Z,100.00
2023-02-28T03:42:30.706Z,100.00
2023-02-28T03:43:38.999Z,100.00
2023-02-28T03:44:49.906Z,100.00
2023-02-28T03:45:53.779Z,100.00
2023-02-28T03:47:03.952Z,100.00
2023-02-28T03:48:32.892Z,100.00
2023-02-28T03:49:44.634Z,100.00
2023-02-28T03:50:50.407Z,100.00
2023-02-28T03:51:55.313Z,100.00
2023-02-28T03:53:08.199Z,100.00
2023-02-28T03:54:17.150Z,100.00
2023-02-28T03:55:20.872Z,100.00
2023-02-28T03:56:32.036Z,100.00
2023-02-28T03:57:52.327Z,100.00
2023-02-28T03:58:54.726Z,100.00
2023-02-28T04:00:32.899Z,100.00
2023-02-28T04:01:40.234Z,100.00
2023-02-28T04:02:43.324Z,100.00
2023-02-28T04:03:46.315Z,100.00
2023-02-28T04:04:50.676Z,100.00
2023-02-28T04:05:56.398Z,100.00
2023-02-28T04:07:12.977Z,100.00
2023-02-28T04:08:15.480Z,100.00
2023-02-28T04:09:18.360Z,100.00
2023-02-28T04:10:21.242Z,100.00
2023-02-28T04:11:43.460Z,100.00
2023-02-28T04:12:45.964Z,100.00
2023-02-28T04:13:49.450Z,100.00
2023-02-28T04:14:52.087Z,100.00
2023-02-28T04:15:54.659Z,100.00
2023-02-28T04:16:57.246Z,100.00
2023-02-28T04:17:59.773Z,100.00
2023-02-28T04:19:06.867Z,100.00
2023-02-28T04:20:10.824Z,100.00
2023-02-28T04:21:13.716Z,100.00
2023-02-28T04:22:18.260Z,100.00
2023-02-28T04:23:20.769Z,100.00
2023-02-28T04:24:27.733Z,100.00
2023-02-28T04:25:30.132Z,100.00
2023-02-28T04:26:37.335Z,100.00
2023-02-28T04:27:39.733Z,100.00
2023-02-28T04:28:42.253Z,100.00
2023-02-28T04:29:45.653Z,100.00
2023-02-28T04:30:48.375Z,100.00
2023-02-28T04:31:51.112Z,100.00
2023-02-28T04:32:53.782Z,100.00
2023-02-28T04:33:56.444Z,100.00
2023-02-28T04:34:58.937Z,100.00
2023-02-28T04:36:08.426Z,100.00
2023-02-28T04:37:13.797Z,100.00
2023-02-28T04:38:16.581Z,100.00
2023-02-28T04:39:19.581Z,100.00
2023-02-28T04:40:21.987Z,100.00
2023-02-28T04:41:24.859Z,100.00
2023-02-28T04:42:27.748Z,100.00
2023-02-28T04:43:31.474Z,100.00
2023-02-28T04:44:34.139Z,100.00
2023-02-28T04:45:36.667Z,100.00
2023-02-28T04:46:39.277Z,100.00
2023-02-28T04:47:41.802Z,100.00
2023-02-28T04:48:45.388Z,100.00
2023-02-28T04:49:47.906Z,100.00
2023-02-28T04:50:50.424Z,100.00
2023-02-28T04:51:53.950Z,100.00
2023-02-28T04:52:57.508Z,100.00
2023-02-28T04:54:00.029Z,100.00
2023-02-28T04:55:02.794Z,100.00
2023-02-28T04:56:05.670Z,100.00
2023-02-28T04:57:08.188Z,100.00
2023-02-28T04:58:10.952Z,100.00
2023-02-28T04:59:13.354Z,100.00
2023-02-28T05:00:17.798Z,100.00
2023-02-28T05:01:30.735Z,100.00
2023-02-28T05:02:36.484Z,100.00
2023-02-28T05:03:41.675Z,100.00
2023-02-28T05:04:44.328Z,100.00
2023-02-28T05:05:46.835Z,100.00
2023-02-28T05:06:49.352Z,100.00
2023-02-28T05:07:51.879Z,100.00
2023-02-28T05:08:54.395Z,100.00
2023-02-28T05:09:57.046Z,100.00
2023-02-28T05:11:01.718Z,100.00
2023-02-28T05:12:04.380Z,100.00
2023-02-28T05:13:06.809Z,100.00
2023-02-28T05:14:14.201Z,100.00
2023-02-28T05:15:18.041Z,100.00
2023-02-28T05:16:21.368Z,100.00
2023-02-28T05:17:23.812Z,100.00
2023-02-28T05:18:26.322Z,100.00
2023-02-28T05:19:29.206Z,100.00
2023-02-28T05:20:31.726Z,100.00
2023-02-28T05:21:39.286Z,100.00
2023-02-28T05:22:42.776Z,100.00
2023-02-28T05:23:46.830Z,100.00
2023-02-28T05:24:50.446Z,100.00
2023-02-28T05:25:53.929Z,100.00
2023-02-28T05:26:56.686Z,100.00
2023-02-28T05:27:59.211Z,100.00
2023-02-28T05:29:01.731Z,100.00
2023-02-28T05:30:05.458Z,100.00
2023-02-28T05:31:11.963Z,100.00
2023-02-28T05:32:14.481Z,100.00
2023-02-28T05:33:16.980Z,100.00
2023-02-28T05:34:19.518Z,100.00
2023-02-28T05:35:22.019Z,100.00
2023-02-28T05:36:24.898Z,100.00
2023-02-28T05:37:27.414Z,100.00
2023-02-28T05:38:29.933Z,100.00
2023-02-28T05:39:32.455Z,100.00
2023-02-28T05:40:34.976Z,100.00
2023-02-28T05:41:37.493Z,100.00
2023-02-28T05:42:40.134Z,100.00
2023-02-28T05:43:42.787Z,100.00
2023-02-28T05:44:45.295Z,100.00
2023-02-28T05:45:47.725Z,100.00
2023-02-28T05:46:50.252Z,100.00
2023-02-28T05:47:56.706Z,100.00
2023-02-28T05:49:01.276Z,100.00
2023-02-28T05:50:05.239Z,100.00
2023-02-28T05:51:09.072Z,100.00
2023-02-28T05:52:11.823Z,100.00
2023-02-28T05:53:14.348Z,100.00
2023-02-28T05:54:16.746Z,100.00
2023-02-28T05:55:19.511Z,100.00
2023-02-28T05:56:21.915Z,100.00
2023-02-28T05:57:25.053Z,100.00
2023-02-28T05:58:31.815Z,100.00
2023-02-28T05:59:34.513Z,100.00
2023-02-28T06:00:37.152Z,100.00
2023-02-28T06:01:40.757Z,100.00
2023-02-28T06:02:43.285Z,100.00
2023-02-28T06:03:45.749Z,100.00
2023-02-28T06:04:48.197Z,100.00
2023-02-28T06:05:51.557Z,100.00
2023-02-28T06:06:54.323Z,100.00
2023-02-28T06:07:56.730Z,100.00
2023-02-28T06:08:59.356Z,100.00
2023-02-28T06:10:01.882Z,100.00
2023-02-28T06:11:05.244Z,100.00
2023-02-28T06:12:10.400Z,100.00
2023-02-28T06:13:13.941Z,100.00
2023-02-28T06:14:19.283Z,100.00
2023-02-28T06:15:22.068Z,100.00
2023-02-28T06:16:25.492Z,100.00
2023-02-28T06:17:28.048Z,100.00
2023-02-28T06:18:30.334Z,100.00
2023-02-28T06:19:33.089Z,100.00
2023-02-28T06:20:37.365Z,100.00
2023-02-28T06:21:39.926Z,100.00
2023-02-28T06:22:42.459Z,100.00
2023-02-28T06:23:45.095Z,100.00
2023-02-28T06:24:47.730Z,100.00
2023-02-28T06:25:50.730Z,100.00
2023-02-28T06:26:53.266Z,100.00
2023-02-28T06:27:56.513Z,100.00
2023-02-28T06:28:59.137Z,100.00
2023-02-28T06:30:01.657Z,100.00
2023-02-28T06:31:12.349Z,100.00
2023-02-28T06:32:14.911Z,100.00
2023-02-28T06:33:17.499Z,100.00
2023-02-28T06:34:19.908Z,100.00
2023-02-28T06:35:22.602Z,100.00
2023-02-28T06:36:25.302Z,100.00
2023-02-28T06:37:27.946Z,100.00
2023-02-28T06:38:30.938Z,100.00
2023-02-28T06:39:33.583Z,100.00
2023-02-28T06:40:36.824Z,100.00
2023-02-28T06:41:53.651Z,100.00
2023-02-28T06:42:57.467Z,100.00
2023-02-28T06:44:00.261Z,100.00
2023-02-28T06:45:05.654Z,100.00
2023-02-28T06:46:10.032Z,100.00
2023-02-28T06:47:13.186Z,100.00
2023-02-28T06:48:15.991Z,100.00
2023-02-28T06:49:18.837Z,100.00
2023-02-28T06:50:21.600Z,100.00
2023-02-28T06:51:25.464Z,100.00
2023-02-28T06:52:28.190Z,100.00
2023-02-28T06:53:30.713Z,100.00
2023-02-28T06:54:33.110Z,100.00
2023-02-28T06:55:35.513Z,100.00
2023-02-28T06:56:38.274Z,100.00
2023-02-28T06:57:40.919Z,100.00
2023-02-28T06:58:46.700Z,100.00
2023-02-28T06:59:50.517Z,100.00
2023-02-28T07:00:53.775Z,100.00
2023-02-28T07:01:56.433Z,100.00
2023-02-28T07:02:58.800Z,100.00
2023-02-28T07:04:01.684Z,100.00
2023-02-28T07:05:07.439Z,100.00
2023-02-28T07:06:09.961Z,100.00
2023-02-28T07:07:12.596Z,100.00
2023-02-28T07:08:15.000Z,100.00
2023-02-28T07:09:17.515Z,100.00
2023-02-28T07:10:20.593Z,100.00
2023-02-28T07:11:26.840Z,100.00
2023-02-28T07:12:29.294Z,100.00
2023-02-28T07:13:31.806Z,100.00
2023-02-28T07:14:34.920Z,100.00
2023-02-28T07:15:41.190Z,100.00
2023-02-28T07:16:46.633Z,100.00
2023-02-28T07:17:49.203Z,100.00
2023-02-28T07:18:54.140Z,100.00
2023-02-28T07:19:56.651Z,100.00
2023-02-28T07:20:59.407Z,100.00
2023-02-28T07:22:03.868Z,100.00
2023-02-28T07:23:06.366Z,100.00
2023-02-28T07:24:09.366Z,100.00
2023-02-28T07:25:11.766Z,100.00
2023-02-28T07:26:16.685Z,100.00
2023-02-28T07:27:26.761Z,100.00
2023-02-28T07:28:29.286Z,100.00
2023-02-28T07:29:31.814Z,100.00
2023-02-28T07:30:34.336Z,100.00
2023-02-28T07:31:36.904Z,100.00
2023-02-28T07:32:39.255Z,100.00
2023-02-28T07:33:42.029Z,100.00
2023-02-28T07:34:44.531Z,100.00
2023-02-28T07:35:47.070Z,100.00
2023-02-28T07:36:49.813Z,100.00
2023-02-28T07:37:52.581Z,100.00
2023-02-28T07:38:55.138Z,100.00
2023-02-28T07:39:57.623Z,96.51
2023-02-28T07:41:00.138Z,89.78
2023-02-28T07:42:07.344Z,89.66
2023-02-28T07:43:09.861Z,83.81
2023-02-28T07:44:13.233Z,79.97
2023-02-28T07:45:15.748Z,77.00
2023-02-28T07:46:19.515Z,72.57
2023-02-28T07:47:24.465Z,70.98
2023-02-28T07:48:27.768Z,69.86
2023-02-28T07:49:30.271Z,67.45
2023-02-28T07:50:32.914Z,68.11
2023-02-28T07:51:35.450Z,65.40
2023-02-28T07:52:39.156Z,68.02
2023-02-28T07:53:41.675Z,67.57
2023-02-28T07:54:44.192Z,67.22
2023-02-28T07:55:46.712Z,62.03
2023-02-28T07:56:49.246Z,60.90
2023-02-28T07:57:51.809Z,60.41
2023-02-28T07:58:54.283Z,61.51
2023-02-28T07:59:56.921Z,60.70
2023-02-28T08:01:07.008Z,58.66
2023-02-28T08:02:17.681Z,57.30
2023-02-28T08:03:21.640Z,55.92
2023-02-28T08:04:24.164Z,55.94
2023-02-28T08:05:26.693Z,55.49
2023-02-28T08:06:29.084Z,53.05
2023-02-28T08:07:31.604Z,56.81
2023-02-28T08:08:34.386Z,55.13
2023-02-28T08:09:36.887Z,55.61
2023-02-28T08:10:39.525Z,55.59
2023-02-28T08:11:42.047Z,53.44
2023-02-28T08:12:44.570Z,54.63
2023-02-28T08:13:47.094Z,52.94
2023-02-28T08:14:49.727Z,53.29
2023-02-28T08:15:52.169Z,55.28
2023-02-28T08:16:55.492Z,54.35
2023-02-28T08:17:58.133Z,52.99
2023-02-28T08:19:00.671Z,54.71
2023-02-28T08:20:03.176Z,52.86
2023-02-28T08:21:09.651Z,52.78
2023-02-28T08:22:12.171Z,51.66
2023-02-28T08:23:14.696Z,52.14
2023-02-28T08:24:17.214Z,53.29
2023-02-28T08:25:19.853Z,52.36
2023-02-28T08:26:22.389Z,51.48
2023-02-28T08:27:24.800Z,53.45
2023-02-28T08:28:27.696Z,53.33
2023-02-28T08:29:31.275Z,50.88
2023-02-28T08:30:33.897Z,53.36
2023-02-28T08:31:36.656Z,51.40
2023-02-28T08:32:39.661Z,50.31
2023-02-28T08:33:42.664Z,50.83
2023-02-28T08:34:46.984Z,51.03
2023-02-28T08:35:54.711Z,50.82
2023-02-28T08:36:57.181Z,48.26
2023-02-28T08:37:59.700Z,46.74
2023-02-28T08:39:02.461Z,46.78
2023-02-28T08:40:05.475Z,43.74
2023-02-28T08:41:11.717Z,45.62
2023-02-28T08:42:14.230Z,44.03
2023-02-28T08:43:16.751Z,43.57
2023-02-28T08:44:19.151Z,42.30
2023-02-28T08:45:21.667Z,43.32
2023-02-28T08:46:24.939Z,42.05
2023-02-28T08:47:27.667Z,41.23
2023-02-28T08:48:32.955Z,39.89
2023-02-28T08:49:35.614Z,40.71
2023-02-28T08:50:38.109Z,40.64
2023-02-28T08:51:40.509Z,40.00
2023-02-28T08:52:46.099Z,39.49
2023-02-28T08:53:50.533Z,38.74
2023-02-28T08:54:53.012Z,39.36
2023-02-28T08:56:05.961Z,39.44
2023-02-28T08:57:08.468Z,38.91
2023-02-28T08:58:10.999Z,37.52
2023-02-28T08:59:13.510Z,39.14
2023-02-28T09:00:16.164Z,37.30
2023-02-28T09:01:21.598Z,35.59
2023-02-28T09:02:24.071Z,35.84
2023-02-28T09:03:28.174Z,35.75
2023-02-28T09:04:32.157Z,37.51
2023-02-28T09:05:34.655Z,37.88
2023-02-28T09:06:37.281Z,36.67
2023-02-28T09:07:39.797Z,36.15
2023-02-28T09:08:42.557Z,35.52
2023-02-28T09:09:54.978Z,35.48
2023-02-28T09:10:59.760Z,34.97
2023-02-28T09:12:03.242Z,34.36
2023-02-28T09:13:07.398Z,33.43
2023-02-28T09:14:09.932Z,34.85
2023-02-28T09:15:12.443Z,35.27
2023-02-28T09:16:20.273Z,34.19
2023-02-28T09:17:22.758Z,33.43
2023-02-28T09:18:25.283Z,32.74
2023-02-28T09:19:27.802Z,32.11
2023-02-28T09:20:30.324Z,33.90
2023-02-28T09:21:32.921Z,34.56
2023-02-28T09:22:35.382Z,34.60
2023-02-28T09:23:39.329Z,34.17
2023-02-28T09:24:41.855Z,33.32
2023-02-28T09:25:52.886Z,34.43
2023-02-28T09:27:04.568Z,33.25
2023-02-28T09:28:07.892Z,34.00
2023-02-28T09:29:11.133Z,33.94
2023-02-28T09:30:14.502Z,33.35
2023-02-28T09:31:23.253Z,31.00
2023-02-28T09:32:25.826Z,30.08
2023-02-28T09:33:28.441Z,30.43
2023-02-28T09:34:33.695Z,30.17
2023-02-28T09:35:38.139Z,28.83
2023-02-28T09:36:46.002Z,28.84
2023-02-28T09:37:55.418Z,28.06
2023-02-28T09:38:58.327Z,28.90
2023-02-28T09:40:00.816Z,28.19
2023-02-28T09:41:12.722Z,28.26
2023-02-28T09:42:32.379Z,29.09
2023-02-28T09:43:39.585Z,28.01
2023-02-28T09:44:46.200Z,28.98
2023-02-28T09:46:03.377Z,28.62
2023-02-28T09:47:16.305Z,29.59
2023-02-28T09:48:26.385Z,29.59
2023-02-28T09:49:41.387Z,28.34
2023-02-28T09:50:49.667Z,29.38
2023-02-28T09:51:59.996Z,29.45
2023-02-28T09:53:13.066Z,29.44
2023-02-28T09:54:21.836Z,28.43
2023-02-28T09:55:52.564Z,27.54
2023-02-28T09:57:00.952Z,27.66
2023-02-28T09:58:03.616Z,29.54
2023-02-28T09:59:28.074Z,27.77
2023-02-28T10:00:37.555Z,27.59
2023-02-28T10:01:44.253Z,29.02
2023-02-28T10:02:50.179Z,28.06
2023-02-28T10:03:59.996Z,27.34
2023-02-28T10:05:15.836Z,28.54
2023-02-28T10:06:20.884Z,27.85
2023-02-28T10:07:35.282Z,27.80
2023-02-28T10:09:02.560Z,27.82
2023-02-28T10:10:16.344Z,29.07
2023-02-28T10:11:21.845Z,27.70
2023-02-28T10:12:27.122Z,26.95
2023-02-28T10:13:59.041Z,26.35
2023-02-28T10:15:03.490Z,26.08
2023-02-28T10:16:28.952Z,27.80
2023-02-28T10:17:54.911Z,28.49
2023-02-28T10:19:27.127Z,29.18
2023-02-28T10:20:32.526Z,28.78
2023-02-28T10:21:47.414Z,26.98
2023-02-28T10:23:11.052Z,28.04
2023-02-28T10:24:26.891Z,27.21
2023-02-28T10:25:30.729Z,27.00
2023-02-28T10:26:34.342Z,26.93
2023-02-28T10:27:36.858Z,25.98
2023-02-28T10:28:41.202Z,24.92
2023-02-28T10:29:52.335Z,24.30
2023-02-28T10:30:56.017Z,23.93
2023-02-28T10:32:02.306Z,24.54
2023-02-28T10:33:04.877Z,25.30
2023-02-28T10:34:08.538Z,26.25
2023-02-28T10:35:11.177Z,28.71
2023-02-28T10:36:19.980Z,28.94
2023-02-28T10:37:22.818Z,30.04
2023-02-28T10:38:28.839Z,31.80
2023-02-28T10:39:40.479Z,33.05
2023-02-28T10:40:42.985Z,31.79
2023-02-28T10:41:45.622Z,31.03
2023-02-28T10:43:03.042Z,30.92
2023-02-28T10:44:16.835Z,30.43
2023-02-28T10:45:19.346Z,29.07
2023-02-28T10:46:27.994Z,29.26
2023-02-28T10:47:31.233Z,29.01
2023-02-28T10:49:04.469Z,27.33
2023-02-28T10:50:07.227Z,28.08
2023-02-28T10:51:12.774Z,26.55
2023-02-28T10:52:33.630Z,25.92
2023-02-28T10:53:57.528Z,24.92
2023-02-28T10:55:26.320Z,25.42
2023-02-28T10:56:30.142Z,25.49
2023-02-28T10:57:33.631Z,24.41
2023-02-28T10:58:54.037Z,24.95
2023-02-28T11:00:20.192Z,25.05
2023-02-28T11:01:31.875Z,23.61
2023-02-28T11:02:39.417Z,24.10
2023-02-28T11:03:42.032Z,24.26
2023-02-28T11:04:44.468Z,23.99
2023-02-28T11:05:48.035Z,23.85
2023-02-28T11:07:01.843Z,25.75
2023-02-28T11:08:13.854Z,26.40
2023-02-28T11:09:25.434Z,26.92
2023-02-28T11:10:31.839Z,26.64
2023-02-28T11:11:45.421Z,25.07
2023-02-28T11:12:52.928Z,25.04
2023-02-28T11:14:05.327Z,25.39
2023-02-28T11:15:19.026Z,23.86
2023-02-28T11:16:22.269Z,23.64
2023-02-28T11:17:31.001Z,22.54
2023-02-28T11:18:39.168Z,22.47
2023-02-28T11:19:47.922Z,23.51
2023-02-28T11:20:55.972Z,23.53
2023-02-28T11:22:01.411Z,24.52
2023-02-28T11:23:06.171Z,25.17
2023-02-28T11:24:24.166Z,25.25
2023-02-28T11:25:39.299Z,25.39
2023-02-28T11:26:49.376Z,25.67
2023-02-28T11:27:58.967Z,24.79
2023-02-28T11:29:13.139Z,23.94
2023-02-28T11:30:32.684Z,24.87
2023-02-28T11:31:35.265Z,24.50
2023-02-28T11:32:38.527Z,23.75
2023-02-28T11:33:52.487Z,23.01
2023-02-28T11:35:11.213Z,22.69
2023-02-28T11:36:29.221Z,22.25
2023-02-28T11:37:33.670Z,22.76
2023-02-28T11:38:37.378Z,23.22
2023-02-28T11:39:40.017Z,21.80
2023-02-28T11:40:57.174Z,23.10
2023-02-28T11:42:36.894Z,22.65
2023-02-28T11:43:42.184Z,22.82
2023-02-28T11:45:19.018Z,22.90
2023-02-28T11:46:47.840Z,22.99
2023-02-28T11:48:17.218Z,22.40
2023-02-28T11:49:47.219Z,22.21
2023-02-28T11:51:16.656Z,22.50
2023-02-28T11:52:38.467Z,23.35
2023-02-28T11:53:52.270Z,23.39
2023-02-28T11:55:00.666Z,24.20
2023-02-28T11:56:40.505Z,23.62
2023-02-28T11:58:06.906Z,25.78
2023-02-28T11:59:45.918Z,26.28
2023-02-28T12:01:25.997Z,25.78
2023-02-28T12:02:38.153Z,25.43
2023-02-28T12:03:56.361Z,25.41
2023-02-28T12:05:16.399Z,24.80
2023-02-28T12:06:40.285Z,24.72
2023-02-28T12:07:51.080Z,24.46
2023-02-28T12:08:53.359Z,25.12
2023-02-28T12:10:20.388Z,23.19
2023-02-28T12:11:49.302Z,23.52
2023-02-28T12:13:05.968Z,23.63
2023-02-28T12:14:29.745Z,23.10
2023-02-28T12:15:41.009Z,22.69
2023-02-28T12:16:49.899Z,22.26
2023-02-28T12:18:13.893Z,21.75
2023-02-28T12:19:29.250Z,21.58
2023-02-28T12:20:34.546Z,21.19
2023-02-28T12:21:42.694Z,20.77
2023-02-28T12:23:02.059Z,21.29
2023-02-28T12:24:38.141Z,21.24
2023-02-28T12:25:55.061Z,21.31
2023-02-28T12:27:01.899Z,22.21
2023-02-28T12:28:05.256Z,20.69
2023-02-28T12:29:16.417Z,20.73
2023-02-28T12:30:36.588Z,21.02
2023-02-28T12:31:50.530Z,20.39
2023-02-28T12:33:16.778Z,20.88
2023-02-28T12:34:24.584Z,21.10
2023-02-28T12:35:37.815Z,20.82
2023-02-28T12:36:45.355Z,19.90
2023-02-28T12:37:58.421Z,19.55
2023-02-28T12:39:19.663Z,20.25
2023-02-28T12:40:43.180Z,19.49
2023-02-28T12:42:05.505Z,19.66
2023-02-28T12:43:10.904Z,20.68
2023-02-28T12:44:23.025Z,21.04
2023-02-28T12:45:33.253Z,22.12
2023-02-28T12:46:42.554Z,22.18
2023-02-28T12:47:49.784Z,21.50
2023-02-28T12:48:57.706Z,22.20
2023-02-28T12:50:07.551Z,22.84
2023-02-28T12:51:11.289Z,23.54
2023-02-28T12:52:18.587Z,22.19
2023-02-28T12:54:06.254Z,22.02
2023-02-28T12:56:05.629Z,22.20
2023-02-28T12:57:17.396Z,22.95
2023-02-28T12:58:32.638Z,23.68
2023-02-28T12:59:44.276Z,24.75
2023-02-28T13:01:08.538Z,24.83
2023-02-28T13:02:26.261Z,25.29
2023-02-28T13:03:46.677Z,24.52
2023-02-28T13:05:07.445Z,25.57
2023-02-28T13:06:36.597Z,25.34
2023-02-28T13:08:05.427Z,25.78
2023-02-28T13:09:15.730Z,25.93
2023-02-28T13:10:19.953Z,26.41
2023-02-28T13:11:41.285Z,26.99
2023-02-28T13:12:52.580Z,27.95
2023-02-28T13:14:04.689Z,29.48
2023-02-28T13:15:22.398Z,30.90
2023-02-28T13:16:24.975Z,30.67
2023-02-28T13:17:27.486Z,31.22
2023-02-28T13:18:47.403Z,32.20
2023-02-28T13:19:55.826Z,31.71
2023-02-28T13:20:58.445Z,31.82
2023-02-28T13:22:02.523Z,31.63
2023-02-28T13:23:06.725Z,30.49
2023-02-28T13:24:10.091Z,30.88
2023-02-28T13:25:24.488Z,31.29
2023-02-28T13:26:38.666Z,31.71
2023-02-28T13:27:42.971Z,31.79
2023-02-28T13:29:16.937Z,30.89
2023-02-28T13:30:57.044Z,31.63
2023-02-28T13:32:09.515Z,31.69
2023-02-28T13:33:32.528Z,32.75
2023-02-28T13:34:40.337Z,32.35
2023-02-28T13:35:46.285Z,31.50
2023-02-28T13:36:48.853Z,33.15
2023-02-28T13:37:52.817Z,33.72
2023-02-28T13:39:22.097Z,32.78
2023-02-28T13:40:38.207Z,33.42
2023-02-28T13:41:46.942Z,33.00
2023-02-28T13:42:51.640Z,32.54
2023-02-28T13:44:04.953Z,31.86
2023-02-28T13:45:07.724Z,31.26
2023-02-28T13:46:13.723Z,31.20
2023-02-28T13:47:25.829Z,30.66
2023-02-28T13:48:30.626Z,31.34
2023-02-28T13:49:35.021Z,31.32
2023-02-28T13:50:39.107Z,31.80
2023-02-28T13:51:47.933Z,32.19
2023-02-28T13:53:02.308Z,32.36
2023-02-28T13:54:17.191Z,31.96
2023-02-28T13:55:30.041Z,31.29
2023-02-28T13:56:46.597Z,31.57
2023-02-28T13:57:51.757Z,31.31
2023-02-28T13:59:23.552Z,33.58
2023-02-28T14:01:01.901Z,33.55
2023-02-28T14:02:50.174Z,32.46
2023-02-28T14:03:58.596Z,32.30
2023-02-28T14:05:12.522Z,32.69
2023-02-28T14:06:33.650Z,32.96
2023-02-28T14:07:58.133Z,32.80
2023-02-28T14:09:04.981Z,35.16
2023-02-28T14:10:10.243Z,32.55
2023-02-28T14:11:28.019Z,32.29
2023-02-28T14:12:58.814Z,34.15
2023-02-28T14:14:03.287Z,33.71
2023-02-28T14:15:34.424Z,33.67
2023-02-28T14:16:47.933Z,31.87
2023-02-28T14:17:54.286Z,33.86
2023-02-28T14:19:01.852Z,34.85
2023-02-28T14:20:04.731Z,34.69
2023-02-28T14:21:26.457Z,33.99
2023-02-28T14:23:03.891Z,34.17
2023-02-28T14:24:55.373Z,33.42
2023-02-28T14:26:22.171Z,33.83